sensor_id;sensor_type;location;lat;lon;timestamp;P1;durP1;ratioP1;P2;durP2;ratioP2
12024;SDS011;6073;53.230;10.444;2024-02-23T00:00:10;1.48;;;1.05;;
12024;SDS011;6073;53.230;10.444;2024-02-23T00:02:37;2.28;;;1.25;;
12024;SDS011;6073;53.230;10.444;2024-02-23T00:05:03;1.33;;;1.20;;
12024;SDS011;6073;53.230;10.444;2024-02-23T00:07:29;0.95;;;0.95;;
12024;SDS011;6073;53.230;10.444;2024-02-23T00:09:54;1.77;;;1.13;;
12024;SDS011;6073;53.230;10.444;2024-02-23T00:12:20;1.85;;;1.10;;
12024;SDS011;6073;53.230;10.444;2024-02-23T00:14:45;2.78;;;1.33;;
12024;SDS011;6073;53.230;10.444;2024-02-23T00:17:11;3.55;;;0.98;;
12024;SDS011;6073;53.230;10.444;2024-02-23T00:19:37;1.08;;;1.08;;
12024;SDS011;6073;53.230;10.444;2024-02-23T00:22:02;1.60;;;1.20;;
12024;SDS011;6073;53.230;10.444;2024-02-23T00:24:28;1.10;;;0.98;;
12024;SDS011;6073;53.230;10.444;2024-02-23T00:26:54;2.95;;;1.20;;
12024;SDS011;6073;53.230;10.444;2024-02-23T00:29:19;1.67;;;1.27;;
12024;SDS011;6073;53.230;10.444;2024-02-23T00:31:46;2.05;;;1.10;;
12024;SDS011;6073;53.230;10.444;2024-02-23T00:34:12;3.55;;;1.30;;
12024;SDS011;6073;53.230;10.444;2024-02-23T00:36:41;5.90;;;1.20;;
12024;SDS011;6073;53.230;10.444;2024-02-23T00:39:07;2.08;;;0.98;;
12024;SDS011;6073;53.230;10.444;2024-02-23T00:41:33;1.38;;;1.00;;
12024;SDS011;6073;53.230;10.444;2024-02-23T00:44:00;2.83;;;1.00;;
12024;SDS011;6073;53.230;10.444;2024-02-23T00:46:25;1.48;;;0.93;;
12024;SDS011;6073;53.230;10.444;2024-02-23T00:48:51;2.35;;;0.60;;
12024;SDS011;6073;53.230;10.444;2024-02-23T00:51:17;1.55;;;0.95;;
12024;SDS011;6073;53.230;10.444;2024-02-23T00:53:42;1.58;;;0.75;;
12024;SDS011;6073;53.230;10.444;2024-02-23T00:56:08;2.67;;;1.10;;
12024;SDS011;6073;53.230;10.444;2024-02-23T00:58:33;1.05;;;0.95;;
12024;SDS011;6073;53.230;10.444;2024-02-23T01:00:59;2.03;;;0.98;;
12024;SDS011;6073;53.230;10.444;2024-02-23T01:03:25;1.25;;;0.70;;
12024;SDS011;6073;53.230;10.444;2024-02-23T01:05:51;1.50;;;0.63;;
12024;SDS011;6073;53.230;10.444;2024-02-23T01:08:16;1.27;;;0.80;;
12024;SDS011;6073;53.230;10.444;2024-02-23T01:10:42;2.45;;;1.10;;
12024;SDS011;6073;53.230;10.444;2024-02-23T01:13:08;2.85;;;1.00;;
12024;SDS011;6073;53.230;10.444;2024-02-23T01:15:33;1.88;;;0.93;;
12024;SDS011;6073;53.230;10.444;2024-02-23T01:17:59;1.67;;;0.90;;
12024;SDS011;6073;53.230;10.444;2024-02-23T01:20:24;1.10;;;0.80;;
12024;SDS011;6073;53.230;10.444;2024-02-23T01:22:50;1.33;;;0.70;;
12024;SDS011;6073;53.230;10.444;2024-02-23T01:25:16;2.58;;;0.80;;
12024;SDS011;6073;53.230;10.444;2024-02-23T01:27:41;1.08;;;0.93;;
12024;SDS011;6073;53.230;10.444;2024-02-23T01:30:09;1.17;;;0.77;;
12024;SDS011;6073;53.230;10.444;2024-02-23T01:32:35;1.80;;;0.85;;
12024;SDS011;6073;53.230;10.444;2024-02-23T01:35:03;1.65;;;1.05;;
12024;SDS011;6073;53.230;10.444;2024-02-23T01:37:29;1.95;;;1.17;;
12024;SDS011;6073;53.230;10.444;2024-02-23T01:39:55;2.03;;;1.15;;
12024;SDS011;6073;53.230;10.444;2024-02-23T01:42:21;2.97;;;1.02;;
12024;SDS011;6073;53.230;10.444;2024-02-23T01:44:46;1.13;;;1.00;;
12024;SDS011;6073;53.230;10.444;2024-02-23T01:47:12;2.05;;;1.17;;
12024;SDS011;6073;53.230;10.444;2024-02-23T01:49:37;1.70;;;0.80;;
12024;SDS011;6073;53.230;10.444;2024-02-23T01:52:03;0.65;;;0.52;;
12024;SDS011;6073;53.230;10.444;2024-02-23T01:54:30;0.82;;;0.40;;
12024;SDS011;6073;53.230;10.444;2024-02-23T01:56:56;0.98;;;0.20;;
12024;SDS011;6073;53.230;10.444;2024-02-23T01:59:23;0.10;;;0.10;;
12024;SDS011;6073;53.230;10.444;2024-02-23T02:01:50;1.25;;;0.38;;
12024;SDS011;6073;53.230;10.444;2024-02-23T02:04:16;1.17;;;0.47;;
12024;SDS011;6073;53.230;10.444;2024-02-23T02:06:41;0.52;;;0.20;;
12024;SDS011;6073;53.230;10.444;2024-02-23T02:09:07;0.22;;;0.22;;
12024;SDS011;6073;53.230;10.444;2024-02-23T02:11:33;0.15;;;0.15;;
12024;SDS011;6073;53.230;10.444;2024-02-23T02:13:59;0.10;;;0.10;;
12024;SDS011;6073;53.230;10.444;2024-02-23T02:16:25;0.30;;;0.30;;
12024;SDS011;6073;53.230;10.444;2024-02-23T02:18:50;1.15;;;0.30;;
12024;SDS011;6073;53.230;10.444;2024-02-23T02:21:16;0.35;;;0.30;;
12024;SDS011;6073;53.230;10.444;2024-02-23T02:23:41;1.38;;;0.30;;
12024;SDS011;6073;53.230;10.444;2024-02-23T02:26:07;0.43;;;0.38;;
12024;SDS011;6073;53.230;10.444;2024-02-23T02:28:33;0.38;;;0.38;;
12024;SDS011;6073;53.230;10.444;2024-02-23T02:30:59;0.40;;;0.40;;
12024;SDS011;6073;53.230;10.444;2024-02-23T02:33:24;0.30;;;0.30;;
12024;SDS011;6073;53.230;10.444;2024-02-23T02:35:50;1.35;;;0.28;;
12024;SDS011;6073;53.230;10.444;2024-02-23T02:38:15;0.40;;;0.40;;
12024;SDS011;6073;53.230;10.444;2024-02-23T02:40:41;0.30;;;0.30;;
12024;SDS011;6073;53.230;10.444;2024-02-23T02:43:07;0.88;;;0.52;;
12024;SDS011;6073;53.230;10.444;2024-02-23T02:45:33;0.47;;;0.47;;
12024;SDS011;6073;53.230;10.444;2024-02-23T02:48:02;0.30;;;0.30;;
12024;SDS011;6073;53.230;10.444;2024-02-23T02:50:28;1.75;;;0.40;;
12024;SDS011;6073;53.230;10.444;2024-02-23T02:52:53;0.35;;;0.35;;
12024;SDS011;6073;53.230;10.444;2024-02-23T02:55:19;0.20;;;0.20;;
12024;SDS011;6073;53.230;10.444;2024-02-23T02:57:45;0.35;;;0.28;;
12024;SDS011;6073;53.230;10.444;2024-02-23T03:00:11;0.30;;;0.20;;
12024;SDS011;6073;53.230;10.444;2024-02-23T03:02:37;1.85;;;0.40;;
12024;SDS011;6073;53.230;10.444;2024-02-23T03:05:03;0.50;;;0.38;;
12024;SDS011;6073;53.230;10.444;2024-02-23T03:07:28;0.05;;;0.05;;
12024;SDS011;6073;53.230;10.444;2024-02-23T03:09:54;0.40;;;0.40;;
12024;SDS011;6073;53.230;10.444;2024-02-23T03:12:19;0.20;;;0.20;;
12024;SDS011;6073;53.230;10.444;2024-02-23T03:14:45;0.20;;;0.20;;
12024;SDS011;6073;53.230;10.444;2024-02-23T03:17:11;1.55;;;0.20;;
12024;SDS011;6073;53.230;10.444;2024-02-23T03:19:37;0.38;;;0.30;;
12024;SDS011;6073;53.230;10.444;2024-02-23T03:22:03;0.85;;;0.10;;
12024;SDS011;6073;53.230;10.444;2024-02-23T03:24:29;0.20;;;0.20;;
12024;SDS011;6073;53.230;10.444;2024-02-23T03:26:54;0.20;;;0.10;;
12024;SDS011;6073;53.230;10.444;2024-02-23T03:29:20;0.10;;;0.10;;
12024;SDS011;6073;53.230;10.444;2024-02-23T03:31:50;0.20;;;0.20;;
12024;SDS011;6073;53.230;10.444;2024-02-23T03:34:16;0.10;;;0.10;;
12024;SDS011;6073;53.230;10.444;2024-02-23T03:36:42;0.20;;;0.20;;
12024;SDS011;6073;53.230;10.444;2024-02-23T03:39:07;0.28;;;0.28;;
12024;SDS011;6073;53.230;10.444;2024-02-23T03:41:33;0.00;;;0.00;;
12024;SDS011;6073;53.230;10.444;2024-02-23T03:43:58;0.38;;;0.20;;
12024;SDS011;6073;53.230;10.444;2024-02-23T03:46:24;0.13;;;0.13;;
12024;SDS011;6073;53.230;10.444;2024-02-23T03:48:50;0.15;;;0.15;;
12024;SDS011;6073;53.230;10.444;2024-02-23T03:51:16;0.20;;;0.20;;
12024;SDS011;6073;53.230;10.444;2024-02-23T03:53:42;0.17;;;0.17;;
12024;SDS011;6073;53.230;10.444;2024-02-23T03:56:08;0.20;;;0.20;;
12024;SDS011;6073;53.230;10.444;2024-02-23T03:58:33;0.35;;;0.35;;
12024;SDS011;6073;53.230;10.444;2024-02-23T04:00:59;0.30;;;0.30;;
12024;SDS011;6073;53.230;10.444;2024-02-23T04:03:25;0.57;;;0.10;;
12024;SDS011;6073;53.230;10.444;2024-02-23T04:05:50;0.20;;;0.20;;
12024;SDS011;6073;53.230;10.444;2024-02-23T04:08:16;0.20;;;0.20;;
12024;SDS011;6073;53.230;10.444;2024-02-23T04:10:41;0.32;;;0.17;;
12024;SDS011;6073;53.230;10.444;2024-02-23T04:13:07;0.20;;;0.20;;
12024;SDS011;6073;53.230;10.444;2024-02-23T04:15:33;1.05;;;0.20;;
12024;SDS011;6073;53.230;10.444;2024-02-23T04:17:58;0.28;;;0.28;;
12024;SDS011;6073;53.230;10.444;2024-02-23T04:20:24;0.63;;;0.50;;
12024;SDS011;6073;53.230;10.444;2024-02-23T04:22:50;0.50;;;0.30;;
12024;SDS011;6073;53.230;10.444;2024-02-23T04:25:15;0.30;;;0.30;;
12024;SDS011;6073;53.230;10.444;2024-02-23T04:27:41;0.80;;;0.57;;
12024;SDS011;6073;53.230;10.444;2024-02-23T04:30:06;1.27;;;0.30;;
12024;SDS011;6073;53.230;10.444;2024-02-23T04:32:33;0.52;;;0.43;;
12024;SDS011;6073;53.230;10.444;2024-02-23T04:34:58;0.40;;;0.40;;
12024;SDS011;6073;53.230;10.444;2024-02-23T04:37:24;0.65;;;0.65;;
12024;SDS011;6073;53.230;10.444;2024-02-23T04:39:49;1.48;;;0.80;;
12024;SDS011;6073;53.230;10.444;2024-02-23T04:42:15;0.73;;;0.73;;
12024;SDS011;6073;53.230;10.444;2024-02-23T04:44:43;2.20;;;1.23;;
12024;SDS011;6073;53.230;10.444;2024-02-23T04:47:09;1.23;;;0.98;;
12024;SDS011;6073;53.230;10.444;2024-02-23T04:49:34;1.23;;;0.80;;
12024;SDS011;6073;53.230;10.444;2024-02-23T04:52:00;1.35;;;1.00;;
12024;SDS011;6073;53.230;10.444;2024-02-23T04:54:26;1.35;;;0.93;;
12024;SDS011;6073;53.230;10.444;2024-02-23T04:56:51;1.05;;;0.95;;
12024;SDS011;6073;53.230;10.444;2024-02-23T04:59:17;1.88;;;1.10;;
12024;SDS011;6073;53.230;10.444;2024-02-23T05:01:42;1.45;;;1.08;;
12024;SDS011;6073;53.230;10.444;2024-02-23T05:04:08;2.10;;;1.48;;
12024;SDS011;6073;53.230;10.444;2024-02-23T05:06:34;2.30;;;1.00;;
12024;SDS011;6073;53.230;10.444;2024-02-23T05:09:00;2.70;;;1.05;;
12024;SDS011;6073;53.230;10.444;2024-02-23T05:11:26;1.13;;;1.02;;
12024;SDS011;6073;53.230;10.444;2024-02-23T05:13:52;1.33;;;1.23;;
12024;SDS011;6073;53.230;10.444;2024-02-23T05:16:17;4.15;;;1.30;;
12024;SDS011;6073;53.230;10.444;2024-02-23T05:18:43;2.38;;;1.30;;
12024;SDS011;6073;53.230;10.444;2024-02-23T05:21:10;1.95;;;1.23;;
12024;SDS011;6073;53.230;10.444;2024-02-23T05:23:35;1.08;;;0.98;;
12024;SDS011;6073;53.230;10.444;2024-02-23T05:26:01;3.10;;;1.40;;
12024;SDS011;6073;53.230;10.444;2024-02-23T05:28:27;1.30;;;1.20;;
12024;SDS011;6073;53.230;10.444;2024-02-23T05:30:53;3.45;;;1.40;;
12024;SDS011;6073;53.230;10.444;2024-02-23T05:33:19;1.65;;;1.10;;
12024;SDS011;6073;53.230;10.444;2024-02-23T05:35:48;2.03;;;1.13;;
12024;SDS011;6073;53.230;10.444;2024-02-23T05:38:14;4.60;;;1.40;;
12024;SDS011;6073;53.230;10.444;2024-02-23T05:40:40;4.32;;;1.33;;
12024;SDS011;6073;53.230;10.444;2024-02-23T05:43:05;1.17;;;1.08;;
12024;SDS011;6073;53.230;10.444;2024-02-23T05:45:31;1.60;;;1.17;;
12024;SDS011;6073;53.230;10.444;2024-02-23T05:47:57;3.08;;;1.30;;
12024;SDS011;6073;53.230;10.444;2024-02-23T05:50:23;1.65;;;1.10;;
12024;SDS011;6073;53.230;10.444;2024-02-23T05:52:48;1.42;;;1.33;;
12024;SDS011;6073;53.230;10.444;2024-02-23T05:55:14;1.42;;;1.33;;
12024;SDS011;6073;53.230;10.444;2024-02-23T05:57:39;1.35;;;1.17;;
12024;SDS011;6073;53.230;10.444;2024-02-23T06:00:05;3.55;;;1.58;;
12024;SDS011;6073;53.230;10.444;2024-02-23T06:02:32;1.65;;;1.35;;
12024;SDS011;6073;53.230;10.444;2024-02-23T06:04:58;1.85;;;1.17;;
12024;SDS011;6073;53.230;10.444;2024-02-23T06:07:23;1.75;;;1.60;;
12024;SDS011;6073;53.230;10.444;2024-02-23T06:09:54;2.35;;;1.65;;
12024;SDS011;6073;53.230;10.444;2024-02-23T06:12:21;2.25;;;1.40;;
12024;SDS011;6073;53.230;10.444;2024-02-23T06:14:46;2.60;;;2.40;;
12024;SDS011;6073;53.230;10.444;2024-02-23T06:17:12;4.15;;;1.50;;
12024;SDS011;6073;53.230;10.444;2024-02-23T06:19:37;3.03;;;1.55;;
12024;SDS011;6073;53.230;10.444;2024-02-23T06:22:03;2.35;;;1.40;;
12024;SDS011;6073;53.230;10.444;2024-02-23T06:24:29;3.72;;;1.52;;
12024;SDS011;6073;53.230;10.444;2024-02-23T06:26:54;1.95;;;1.50;;
12024;SDS011;6073;53.230;10.444;2024-02-23T06:29:20;2.85;;;1.70;;
12024;SDS011;6073;53.230;10.444;2024-02-23T06:31:45;2.58;;;1.40;;
12024;SDS011;6073;53.230;10.444;2024-02-23T06:34:14;1.65;;;1.33;;
12024;SDS011;6073;53.230;10.444;2024-02-23T06:36:40;3.45;;;1.30;;
12024;SDS011;6073;53.230;10.444;2024-02-23T06:39:06;4.00;;;1.50;;
12024;SDS011;6073;53.230;10.444;2024-02-23T06:41:33;1.55;;;1.40;;
12024;SDS011;6073;53.230;10.444;2024-02-23T06:43:59;2.45;;;1.30;;
12024;SDS011;6073;53.230;10.444;2024-02-23T06:46:25;5.25;;;1.60;;
12024;SDS011;6073;53.230;10.444;2024-02-23T06:48:50;2.60;;;1.30;;
12024;SDS011;6073;53.230;10.444;2024-02-23T06:51:16;3.63;;;1.27;;
12024;SDS011;6073;53.230;10.444;2024-02-23T06:53:41;1.67;;;1.15;;
12024;SDS011;6073;53.230;10.444;2024-02-23T06:56:07;1.73;;;1.35;;
12024;SDS011;6073;53.230;10.444;2024-02-23T06:58:33;4.68;;;1.27;;
12024;SDS011;6073;53.230;10.444;2024-02-23T07:00:58;3.95;;;1.50;;
12024;SDS011;6073;53.230;10.444;2024-02-23T07:03:25;5.40;;;1.80;;
12024;SDS011;6073;53.230;10.444;2024-02-23T07:05:50;2.70;;;1.30;;
12024;SDS011;6073;53.230;10.444;2024-02-23T07:08:16;1.67;;;1.10;;
12024;SDS011;6073;53.230;10.444;2024-02-23T07:10:41;1.38;;;1.20;;
12024;SDS011;6073;53.230;10.444;2024-02-23T07:13:07;3.30;;;1.20;;
12024;SDS011;6073;53.230;10.444;2024-02-23T07:15:33;2.13;;;1.50;;
12024;SDS011;6073;53.230;10.444;2024-02-23T07:18:00;2.97;;;1.52;;
12024;SDS011;6073;53.230;10.444;2024-02-23T07:20:26;2.10;;;1.05;;
12024;SDS011;6073;53.230;10.444;2024-02-23T07:22:51;7.18;;;1.33;;
12024;SDS011;6073;53.230;10.444;2024-02-23T07:25:17;3.45;;;1.35;;
12024;SDS011;6073;53.230;10.444;2024-02-23T07:27:45;2.78;;;1.45;;
12024;SDS011;6073;53.230;10.444;2024-02-23T07:30:12;3.40;;;1.52;;
12024;SDS011;6073;53.230;10.444;2024-02-23T07:32:38;3.88;;;1.30;;
12024;SDS011;6073;53.230;10.444;2024-02-23T07:35:03;4.68;;;1.17;;
12024;SDS011;6073;53.230;10.444;2024-02-23T07:37:29;3.78;;;1.10;;
12024;SDS011;6073;53.230;10.444;2024-02-23T07:39:55;2.05;;;0.90;;
12024;SDS011;6073;53.230;10.444;2024-02-23T07:42:21;2.45;;;0.93;;
12024;SDS011;6073;53.230;10.444;2024-02-23T07:44:46;3.30;;;1.08;;
12024;SDS011;6073;53.230;10.444;2024-02-23T07:47:12;4.00;;;1.40;;
12024;SDS011;6073;53.230;10.444;2024-02-23T07:49:38;5.22;;;1.52;;
12024;SDS011;6073;53.230;10.444;2024-02-23T07:52:05;1.27;;;1.00;;
12024;SDS011;6073;53.230;10.444;2024-02-23T07:54:31;1.45;;;0.73;;
12024;SDS011;6073;53.230;10.444;2024-02-23T07:56:57;1.45;;;0.95;;
12024;SDS011;6073;53.230;10.444;2024-02-23T07:59:23;2.63;;;0.93;;
12024;SDS011;6073;53.230;10.444;2024-02-23T08:01:49;3.75;;;1.13;;
12024;SDS011;6073;53.230;10.444;2024-02-23T08:04:15;3.03;;;1.40;;
12024;SDS011;6073;53.230;10.444;2024-02-23T08:06:41;2.55;;;1.10;;
12024;SDS011;6073;53.230;10.444;2024-02-23T08:09:07;4.03;;;1.10;;
12024;SDS011;6073;53.230;10.444;2024-02-23T08:11:33;4.03;;;1.40;;
12024;SDS011;6073;53.230;10.444;2024-02-23T08:13:59;2.47;;;0.90;;
12024;SDS011;6073;53.230;10.444;2024-02-23T08:16:25;2.58;;;1.23;;
12024;SDS011;6073;53.230;10.444;2024-02-23T08:18:51;8.00;;;1.52;;
12024;SDS011;6073;53.230;10.444;2024-02-23T08:21:16;1.85;;;0.80;;
12024;SDS011;6073;53.230;10.444;2024-02-23T08:23:42;4.20;;;1.40;;
12024;SDS011;6073;53.230;10.444;2024-02-23T08:26:08;2.17;;;0.90;;
12024;SDS011;6073;53.230;10.444;2024-02-23T08:28:35;3.90;;;1.02;;
12024;SDS011;6073;53.230;10.444;2024-02-23T08:31:00;2.65;;;0.88;;
12024;SDS011;6073;53.230;10.444;2024-02-23T08:33:26;3.88;;;1.10;;
12024;SDS011;6073;53.230;10.444;2024-02-23T08:35:51;1.75;;;0.90;;
12024;SDS011;6073;53.230;10.444;2024-02-23T08:38:17;1.25;;;0.75;;
12024;SDS011;6073;53.230;10.444;2024-02-23T08:40:43;2.67;;;1.20;;
12024;SDS011;6073;53.230;10.444;2024-02-23T08:43:10;2.60;;;1.25;;
12024;SDS011;6073;53.230;10.444;2024-02-23T08:45:35;2.10;;;0.80;;
12024;SDS011;6073;53.230;10.444;2024-02-23T08:48:01;1.05;;;0.77;;
12024;SDS011;6073;53.230;10.444;2024-02-23T08:50:28;2.20;;;1.27;;
12024;SDS011;6073;53.230;10.444;2024-02-23T08:52:54;2.60;;;1.25;;
12024;SDS011;6073;53.230;10.444;2024-02-23T08:55:19;4.65;;;0.98;;
12024;SDS011;6073;53.230;10.444;2024-02-23T08:57:46;1.00;;;0.90;;
12024;SDS011;6073;53.230;10.444;2024-02-23T09:00:12;3.67;;;1.35;;
12024;SDS011;6073;53.230;10.444;2024-02-23T09:02:39;3.28;;;1.40;;
12024;SDS011;6073;53.230;10.444;2024-02-23T09:05:07;4.35;;;1.20;;
12024;SDS011;6073;53.230;10.444;2024-02-23T09:07:33;5.25;;;1.33;;
12024;SDS011;6073;53.230;10.444;2024-02-23T09:09:58;1.10;;;1.00;;
12024;SDS011;6073;53.230;10.444;2024-02-23T09:12:24;3.42;;;1.13;;
12024;SDS011;6073;53.230;10.444;2024-02-23T09:14:49;4.30;;;1.40;;
12024;SDS011;6073;53.230;10.444;2024-02-23T09:17:15;1.70;;;1.30;;
12024;SDS011;6073;53.230;10.444;2024-02-23T09:19:41;2.05;;;0.98;;
12024;SDS011;6073;53.230;10.444;2024-02-23T09:22:06;2.40;;;1.10;;
12024;SDS011;6073;53.230;10.444;2024-02-23T09:24:32;1.80;;;1.10;;
12024;SDS011;6073;53.230;10.444;2024-02-23T09:26:58;3.95;;;1.70;;
12024;SDS011;6073;53.230;10.444;2024-02-23T09:29:23;3.38;;;1.13;;
12024;SDS011;6073;53.230;10.444;2024-02-23T09:31:50;4.22;;;1.27;;
12024;SDS011;6073;53.230;10.444;2024-02-23T09:34:16;3.33;;;1.10;;
12024;SDS011;6073;53.230;10.444;2024-02-23T09:36:41;3.40;;;1.05;;
12024;SDS011;6073;53.230;10.444;2024-02-23T09:39:06;4.55;;;0.85;;
12024;SDS011;6073;53.230;10.444;2024-02-23T09:41:32;3.38;;;1.15;;
12024;SDS011;6073;53.230;10.444;2024-02-23T09:44:01;1.38;;;1.00;;
12024;SDS011;6073;53.230;10.444;2024-02-23T09:46:27;2.70;;;1.10;;
12024;SDS011;6073;53.230;10.444;2024-02-23T09:48:54;1.48;;;0.98;;
12024;SDS011;6073;53.230;10.444;2024-02-23T09:51:21;1.73;;;1.13;;
12024;SDS011;6073;53.230;10.444;2024-02-23T09:53:49;1.55;;;0.95;;
12024;SDS011;6073;53.230;10.444;2024-02-23T09:56:16;1.90;;;1.40;;
12024;SDS011;6073;53.230;10.444;2024-02-23T09:58:42;3.20;;;1.30;;
12024;SDS011;6073;53.230;10.444;2024-02-23T10:01:09;2.17;;;0.80;;
12024;SDS011;6073;53.230;10.444;2024-02-23T10:03:36;2.10;;;1.20;;
12024;SDS011;6073;53.230;10.444;2024-02-23T10:06:03;1.83;;;0.93;;
12024;SDS011;6073;53.230;10.444;2024-02-23T10:08:30;2.88;;;1.42;;
12024;SDS011;6073;53.230;10.444;2024-02-23T10:10:55;1.08;;;0.90;;
12024;SDS011;6073;53.230;10.444;2024-02-23T10:13:22;1.35;;;1.10;;
12024;SDS011;6073;53.230;10.444;2024-02-23T10:15:49;2.08;;;1.20;;
12024;SDS011;6073;53.230;10.444;2024-02-23T10:18:15;2.78;;;1.20;;
12024;SDS011;6073;53.230;10.444;2024-02-23T10:20:41;3.47;;;1.20;;
12024;SDS011;6073;53.230;10.444;2024-02-23T10:23:07;2.40;;;1.02;;
12024;SDS011;6073;53.230;10.444;2024-02-23T10:25:33;3.17;;;0.68;;
12024;SDS011;6073;53.230;10.444;2024-02-23T10:28:00;3.95;;;1.10;;
12024;SDS011;6073;53.230;10.444;2024-02-23T10:30:27;3.08;;;1.20;;
12024;SDS011;6073;53.230;10.444;2024-02-23T10:32:54;2.00;;;1.65;;
12024;SDS011;6073;53.230;10.444;2024-02-23T10:35:21;2.45;;;1.02;;
12024;SDS011;6073;53.230;10.444;2024-02-23T10:37:48;3.83;;;1.33;;
12024;SDS011;6073;53.230;10.444;2024-02-23T10:40:17;5.88;;;1.30;;
12024;SDS011;6073;53.230;10.444;2024-02-23T10:42:44;4.93;;;1.02;;
12024;SDS011;6073;53.230;10.444;2024-02-23T10:45:13;3.20;;;1.27;;
12024;SDS011;6073;53.230;10.444;2024-02-23T10:47:40;3.67;;;0.90;;
12024;SDS011;6073;53.230;10.444;2024-02-23T10:50:07;1.65;;;1.20;;
12024;SDS011;6073;53.230;10.444;2024-02-23T10:52:33;2.03;;;0.98;;
12024;SDS011;6073;53.230;10.444;2024-02-23T10:55:01;2.92;;;0.98;;
12024;SDS011;6073;53.230;10.444;2024-02-23T10:57:29;1.05;;;0.68;;
12024;SDS011;6073;53.230;10.444;2024-02-23T10:59:58;5.05;;;1.10;;
12024;SDS011;6073;53.230;10.444;2024-02-23T11:02:26;4.13;;;0.70;;
12024;SDS011;6073;53.230;10.444;2024-02-23T11:04:54;2.63;;;1.23;;
12024;SDS011;6073;53.230;10.444;2024-02-23T11:07:22;3.33;;;0.90;;
12024;SDS011;6073;53.230;10.444;2024-02-23T11:09:53;2.25;;;0.88;;
12024;SDS011;6073;53.230;10.444;2024-02-23T11:12:25;1.02;;;0.57;;
12024;SDS011;6073;53.230;10.444;2024-02-23T11:14:51;2.85;;;1.00;;
12024;SDS011;6073;53.230;10.444;2024-02-23T11:17:32;3.10;;;1.05;;
12024;SDS011;6073;53.230;10.444;2024-02-23T11:20:02;3.95;;;1.10;;
12024;SDS011;6073;53.230;10.444;2024-02-23T11:22:32;2.25;;;1.10;;
12024;SDS011;6073;53.230;10.444;2024-02-23T11:25:06;1.15;;;0.70;;
12024;SDS011;6073;53.230;10.444;2024-02-23T11:27:36;3.15;;;1.42;;
12024;SDS011;6073;53.230;10.444;2024-02-23T11:30:04;2.88;;;1.30;;
12024;SDS011;6073;53.230;10.444;2024-02-23T11:32:46;1.92;;;0.88;;
12024;SDS011;6073;53.230;10.444;2024-02-23T11:35:13;3.30;;;0.98;;
12024;SDS011;6073;53.230;10.444;2024-02-23T11:37:47;3.92;;;0.73;;
12024;SDS011;6073;53.230;10.444;2024-02-23T11:40:13;0.93;;;0.40;;
12024;SDS011;6073;53.230;10.444;2024-02-23T11:42:43;1.55;;;0.88;;
12024;SDS011;6073;53.230;10.444;2024-02-23T11:45:09;1.75;;;1.00;;
12024;SDS011;6073;53.230;10.444;2024-02-23T11:47:36;2.60;;;0.52;;
12024;SDS011;6073;53.230;10.444;2024-02-23T11:50:02;3.22;;;0.77;;
12024;SDS011;6073;53.230;10.444;2024-02-23T11:52:28;2.22;;;0.93;;
12024;SDS011;6073;53.230;10.444;2024-02-23T11:54:53;2.33;;;0.82;;
12024;SDS011;6073;53.230;10.444;2024-02-23T11:57:20;1.65;;;0.65;;
12024;SDS011;6073;53.230;10.444;2024-02-23T11:59:46;1.55;;;0.68;;
12024;SDS011;6073;53.230;10.444;2024-02-23T12:02:14;1.92;;;0.65;;
12024;SDS011;6073;53.230;10.444;2024-02-23T12:04:40;1.02;;;0.60;;
12024;SDS011;6073;53.230;10.444;2024-02-23T12:07:05;1.55;;;0.65;;
12024;SDS011;6073;53.230;10.444;2024-02-23T12:09:31;4.18;;;0.63;;
12024;SDS011;6073;53.230;10.444;2024-02-23T12:11:57;2.72;;;1.10;;
12024;SDS011;6073;53.230;10.444;2024-02-23T12:14:23;2.85;;;0.85;;
12024;SDS011;6073;53.230;10.444;2024-02-23T12:16:51;3.38;;;1.10;;
12024;SDS011;6073;53.230;10.444;2024-02-23T12:19:16;1.25;;;0.73;;
12024;SDS011;6073;53.230;10.444;2024-02-23T12:21:44;2.35;;;0.77;;
12024;SDS011;6073;53.230;10.444;2024-02-23T12:24:11;2.22;;;0.85;;
12024;SDS011;6073;53.230;10.444;2024-02-23T12:26:37;1.45;;;0.57;;
12024;SDS011;6073;53.230;10.444;2024-02-23T12:29:03;1.77;;;0.57;;
12024;SDS011;6073;53.230;10.444;2024-02-23T12:31:30;1.83;;;0.82;;
12024;SDS011;6073;53.230;10.444;2024-02-23T12:33:57;2.90;;;0.63;;
12024;SDS011;6073;53.230;10.444;2024-02-23T12:36:23;2.90;;;0.50;;
12024;SDS011;6073;53.230;10.444;2024-02-23T12:38:48;2.72;;;0.68;;
12024;SDS011;6073;53.230;10.444;2024-02-23T12:41:14;1.80;;;0.93;;
12024;SDS011;6073;53.230;10.444;2024-02-23T12:43:39;3.13;;;0.70;;
12024;SDS011;6073;53.230;10.444;2024-02-23T12:46:05;3.42;;;0.80;;
12024;SDS011;6073;53.230;10.444;2024-02-23T12:48:33;3.47;;;0.95;;
12024;SDS011;6073;53.230;10.444;2024-02-23T12:50:59;1.55;;;0.40;;
12024;SDS011;6073;53.230;10.444;2024-02-23T12:53:37;0.95;;;0.80;;
12024;SDS011;6073;53.230;10.444;2024-02-23T12:56:08;2.45;;;0.50;;
12024;SDS011;6073;53.230;10.444;2024-02-23T12:58:38;0.55;;;0.40;;
12024;SDS011;6073;53.230;10.444;2024-02-23T13:01:07;0.77;;;0.50;;
12024;SDS011;6073;53.230;10.444;2024-02-23T13:03:34;1.70;;;0.82;;
12024;SDS011;6073;53.230;10.444;2024-02-23T13:06:01;3.03;;;1.63;;
12024;SDS011;6073;53.230;10.444;2024-02-23T13:08:27;0.60;;;0.45;;
12024;SDS011;6073;53.230;10.444;2024-02-23T13:10:54;2.03;;;0.70;;
12024;SDS011;6073;53.230;10.444;2024-02-23T13:13:20;2.92;;;0.73;;
12024;SDS011;6073;53.230;10.444;2024-02-23T13:15:46;1.48;;;0.38;;
12024;SDS011;6073;53.230;10.444;2024-02-23T13:18:13;1.52;;;0.57;;
12024;SDS011;6073;53.230;10.444;2024-02-23T13:20:39;1.27;;;0.90;;
12024;SDS011;6073;53.230;10.444;2024-02-23T13:23:09;2.35;;;0.75;;
12024;SDS011;6073;53.230;10.444;2024-02-23T13:25:36;0.88;;;0.63;;
12024;SDS011;6073;53.230;10.444;2024-02-23T13:28:03;2.00;;;0.80;;
12024;SDS011;6073;53.230;10.444;2024-02-23T13:30:29;1.40;;;0.63;;
12024;SDS011;6073;53.230;10.444;2024-02-23T13:32:55;1.40;;;0.50;;
12024;SDS011;6073;53.230;10.444;2024-02-23T13:35:21;2.35;;;0.65;;
12024;SDS011;6073;53.230;10.444;2024-02-23T13:37:47;1.40;;;0.60;;
12024;SDS011;6073;53.230;10.444;2024-02-23T13:40:13;1.13;;;0.73;;
12024;SDS011;6073;53.230;10.444;2024-02-23T13:42:39;3.20;;;1.05;;
12024;SDS011;6073;53.230;10.444;2024-02-23T13:45:05;2.10;;;0.70;;
12024;SDS011;6073;53.230;10.444;2024-02-23T13:47:32;2.00;;;0.70;;
12024;SDS011;6073;53.230;10.444;2024-02-23T13:49:57;1.65;;;0.70;;
12024;SDS011;6073;53.230;10.444;2024-02-23T13:52:23;2.17;;;0.70;;
12024;SDS011;6073;53.230;10.444;2024-02-23T13:54:49;1.65;;;0.65;;
12024;SDS011;6073;53.230;10.444;2024-02-23T13:57:14;1.90;;;0.50;;
12024;SDS011;6073;53.230;10.444;2024-02-23T13:59:40;1.60;;;0.60;;
12024;SDS011;6073;53.230;10.444;2024-02-23T14:02:05;2.33;;;0.80;;
12024;SDS011;6073;53.230;10.444;2024-02-23T14:04:31;1.52;;;0.70;;
12024;SDS011;6073;53.230;10.444;2024-02-23T14:06:56;1.70;;;0.73;;
12024;SDS011;6073;53.230;10.444;2024-02-23T14:09:22;1.50;;;0.73;;
12024;SDS011;6073;53.230;10.444;2024-02-23T14:11:48;2.10;;;0.55;;
12024;SDS011;6073;53.230;10.444;2024-02-23T14:14:13;1.88;;;0.68;;
12024;SDS011;6073;53.230;10.444;2024-02-23T14:16:39;2.35;;;0.93;;
12024;SDS011;6073;53.230;10.444;2024-02-23T14:19:05;1.02;;;0.65;;
12024;SDS011;6073;53.230;10.444;2024-02-23T14:21:31;1.55;;;0.55;;
12024;SDS011;6073;53.230;10.444;2024-02-23T14:23:56;2.30;;;0.70;;
12024;SDS011;6073;53.230;10.444;2024-02-23T14:26:22;2.42;;;0.60;;
12024;SDS011;6073;53.230;10.444;2024-02-23T14:28:47;2.25;;;0.98;;
12024;SDS011;6073;53.230;10.444;2024-02-23T14:31:14;1.15;;;0.70;;
12024;SDS011;6073;53.230;10.444;2024-02-23T14:33:40;2.08;;;0.75;;
12024;SDS011;6073;53.230;10.444;2024-02-23T14:36:06;1.60;;;0.82;;
12024;SDS011;6073;53.230;10.444;2024-02-23T14:38:31;1.33;;;0.68;;
12024;SDS011;6073;53.230;10.444;2024-02-23T14:40:57;0.85;;;0.70;;